createdAt,value
2023-02-13T00:30:33.018Z,9.00
2023-02-13T00:33:09.319Z,8.90
2023-02-13T00:35:42.177Z,8.90
2023-02-13T00:38:11.858Z,8.90
2023-02-13T00:40:38.541Z,8.90
2023-02-13T00:43:05.172Z,9.00
2023-02-13T00:45:36.070Z,9.00
2023-02-13T00:48:02.782Z,9.00
2023-02-13T01:56:45.180Z,8.80
2023-02-13T01:59:19.156Z,8.80
2023-02-13T02:01:46.489Z,8.90
2023-02-13T02:04:26.620Z,8.90
2023-02-13T02:06:57.884Z,8.90
2023-02-13T02:09:28.481Z,8.90
2023-02-13T02:12:22.669Z,8.90
2023-02-13T02:14:50.707Z,8.90
2023-02-13T02:17:18.275Z,8.90
2023-02-13T02:19:52.982Z,8.90
2023-02-13T02:22:19.578Z,8.90
2023-02-13T02:24:52.376Z,9.00
2023-02-13T02:31:53.258Z,8.90
2023-02-13T02:34:23.372Z,8.90
2023-02-13T02:37:09.989Z,8.90
2023-02-13T02:40:10.302Z,8.90
2023-02-13T02:42:49.308Z,8.90
2023-02-13T02:45:27.575Z,9.00
2023-02-13T02:56:01.857Z,8.90
2023-02-13T02:58:47.234Z,8.90
2023-02-13T03:01:37.234Z,8.90
2023-02-13T03:04:23.807Z,8.90
2023-02-13T04:03:24.860Z,8.80
2023-02-13T04:05:58.201Z,8.80
2023-02-13T04:08:25.079Z,8.80
2023-02-13T04:11:03.004Z,8.80
2023-02-13T04:13:45.843Z,8.80
2023-02-13T04:16:29.908Z,8.80
2023-02-13T04:18:57.941Z,8.80
2023-02-13T04:21:24.637Z,8.90
2023-02-13T08:10:53.462Z,6.40
2023-02-13T08:13:20.973Z,6.40
2023-02-13T08:15:47.626Z,6.40
2023-02-13T08:18:14.283Z,6.40
2023-02-13T08:36:06.569Z,6.40
2023-02-13T08:38:34.188Z,6.40
2023-02-13T08:41:00.913Z,6.40
2023-02-13T08:43:27.585Z,6.40
2023-02-13T10:17:10.657Z,9.10
2023-02-13T10:20:12.616Z,9.40
2023-02-13T10:22:44.327Z,9.60
2023-02-13T10:25:53.252Z,9.70
2023-02-13T10:44:12.067Z,10.90
2023-02-13T10:46:59.886Z,11.20
2023-02-13T11:03:18.120Z,12.10
2023-02-13T11:05:44.806Z,12.40
2023-02-13T11:08:32.307Z,12.60
2023-02-13T11:10:59.098Z,12.70
2023-02-13T11:33:09.699Z,14.00
2023-02-13T11:35:37.457Z,14.20
2023-02-13T11:38:14.385Z,14.30
2023-02-13T11:44:33.264Z,14.60
2023-02-13T11:47:03.163Z,14.90
2023-02-13T11:49:32.864Z,15.00
2023-02-13T12:00:37.344Z,15.50
2023-02-13T12:03:25.859Z,15.70
2023-02-13T12:06:10.866Z,15.90
2023-02-13T12:08:39.864Z,16.00
2023-02-13T12:23:16.732Z,16.60
2023-02-13T12:26:14.452Z,16.70
2023-02-13T12:29:15.982Z,16.90
2023-02-13T12:36:06.489Z,17.10
2023-02-13T12:38:42.698Z,17.20
2023-02-13T12:41:22.743Z,17.30
2023-02-13T12:44:11.249Z,17.40
2023-02-13T12:46:49.015Z,17.50
2023-02-13T13:01:43.292Z,17.90
2023-02-13T13:04:25.383Z,18.00
2023-02-13T13:07:29.705Z,18.10
2023-02-13T13:46:20.129Z,18.60
2023-02-13T14:06:00.772Z,18.60
2023-02-13T14:08:45.290Z,18.60
2023-02-13T14:11:30.374Z,18.60
2023-02-13T14:13:57.238Z,18.60
2023-02-13T14:16:45.158Z,18.60
2023-02-13T16:09:27.226Z,14.50
2023-02-13T16:11:59.833Z,14.30
2023-02-13T16:14:30.050Z,14.20
2023-02-13T16:17:08.214Z,14.20
2023-02-13T16:19:51.451Z,14.10
2023-02-13T16:22:37.199Z,14.00
2023-02-13T16:25:12.587Z,13.90
2023-02-13T16:51:04.196Z,13.10
2023-02-13T16:53:32.932Z,12.90
2023-02-13T16:56:06.114Z,12.80
2023-02-13T16:58:32.768Z,12.70
2023-02-13T17:01:01.797Z,12.60
2023-02-13T17:26:35.474Z,11.80
2023-02-13T17:29:02.106Z,11.70
2023-02-13T17:31:28.940Z,11.60
2023-02-13T17:33:55.590Z,11.60
2023-02-13T18:08:04.185Z,10.40
2023-02-13T18:10:33.884Z,10.30
2023-02-13T18:13:04.060Z,10.20
2023-02-13T18:15:35.680Z,10.20
2023-02-13T18:25:44.778Z,10.00
2023-02-13T18:28:11.437Z,9.90
2023-02-13T18:30:41.143Z,9.90
2023-02-13T18:50:23.927Z,9.40
2023-02-13T18:52:51.667Z,9.30
2023-02-13T18:55:18.512Z,9.20
2023-02-13T19:20:42.309Z,8.70
2023-02-13T19:23:08.989Z,8.70
2023-02-13T19:25:39.936Z,8.70
2023-02-13T20:15:05.033Z,7.80
2023-02-13T20:17:31.752Z,7.70
2023-02-13T20:19:58.927Z,7.70
2023-02-13T20:22:25.638Z,7.70
2023-02-13T20:24:52.270Z,7.60
2023-02-13T20:46:57.782Z,7.40
2023-02-13T20:49:26.615Z,7.30
2023-02-13T20:51:53.553Z,7.30
2023-02-13T20:54:20.222Z,7.30
2023-02-13T20:56:47.519Z,7.20
2023-02-13T20:59:14.198Z,7.20
2023-02-13T21:24:49.871Z,6.90
2023-02-13T21:27:16.559Z,6.90
2023-02-13T21:29:43.174Z,6.90
2023-02-13T21:32:09.930Z,6.80
2023-02-13T21:34:36.700Z,6.80
2023-02-13T21:37:03.498Z,6.80
2023-02-13T21:39:30.223Z,6.80
2023-02-13T21:57:20.376Z,6.60
2023-02-13T21:59:47.058Z,6.60
2023-02-13T22:02:13.843Z,6.60
2023-02-13T22:04:42.131Z,6.50
2023-02-13T22:07:08.803Z,6.50
2023-02-13T22:09:35.578Z,6.50
2023-02-13T22:36:22.212Z,6.20
2023-02-13T22:38:50.043Z,6.20
2023-02-13T22:41:22.072Z,6.20
2023-02-13T22:43:49.533Z,6.20
2023-02-13T22:46:28.203Z,6.20
2023-02-13T22:48:55.632Z,6.10
2023-02-13T22:51:40.667Z,6.10
2023-02-13T22:54:07.270Z,6.10
2023-02-13T22:56:34.349Z,6.10
2023-02-13T23:54:06.663Z,5.60
2023-02-13T23:56:33.390Z,5.50
2023-02-13T23:59:00.062Z,5.50
